LN-KFK er ferget til Eggemoen PDF Skriv ut E-post
Skrevet av Dmytro Yakovenko   
onsdag 16. august 2017 22:21

LN-KFK er i dag, 14. september, ferget til Eggemoen for 100t ettersyn. Vi forventer å få flyet tilbake i neste uke. Mer info kommer på Facebook etter hvert.

Sist oppdatert torsdag 14. september 2017 16:22
 
 
METAR
2018/07/20 19:50 ENCN 201950Z 24007KT CAVOK 20/12 Q1011
TAF
2018/07/20 18:37 TAF ENCN 201700Z 2018/2021 25012KT CAVOK
LN-KFK
< 10 timer til service
VFR dag
03:53 - 23:14
Brannvakt
Inaktiv
Banner
Banner
Banner
Banner
Banner